Time;durP1;ratioP1;P1;durP2;ratioP2;P2;SDS_P1;SDS_P2;PMS_P1;PMS_P2;Temp;Humidity;BMP_temperature;BMP_pressure;BME280_temperature;BME280_humidity;BME280_pressure;Samples;Min_cycle;Max_cycle;Signal;HPM_P1;HPM_P2
2022/01/30 00:01:45;;;;;;;1.23;1.08;;;;;;;9.12;60.28;96051.06;5014176;28;20021;-60
2022/01/30 00:04:11;;;;;;;0.80;0.80;;;;;;;8.33;62.03;96034.78;5030964;28;20376;-60
2022/01/30 00:06:36;;;;;;;1.45;0.98;;;;;;;8.70;60.53;95999.22;5013311;28;20116;-60
2022/01/30 00:09:03;;;;;;;1.35;0.80;;;;;;;8.03;63.29;95985.25;5030654;28;20511;-60
2022/01/30 00:11:33;;;;;;;0.85;0.77;;;;;;;8.45;62.67;96029.25;5030593;28;20021;-60
2022/01/30 00:14:00;;;;;;;1.92;1.00;;;;;;;8.76;61.98;96035.28;5013056;28;20400;-60
2022/01/30 00:16:31;;;;;;;0.90;0.80;;;;;;;8.83;60.92;95985.34;5020838;28;20029;-60
2022/01/30 00:19:13;;;;;;;0.95;0.90;;;;;;;8.90;62.07;96030.16;5010760;28;20026;-60
2022/01/30 00:21:45;;;;;;;2.28;0.82;;;;;;;8.56;62.97;96019.41;5010977;28;20351;-60
2022/01/30 00:26:39;;;;;;;0.90;0.90;;;;;;;8.67;62.43;96026.28;5011255;28;20078;-62
2022/01/30 00:29:05;;;;;;;1.33;0.70;;;;;;;8.18;63.32;96003.00;5009366;28;20054;-61
2022/01/30 00:31:31;;;;;;;1.25;1.15;;;;;;;8.83;61.65;96019.06;5019280;28;20133;-60
2022/01/30 00:33:57;;;;;;;0.98;0.88;;;;;;;8.64;62.43;96015.41;5011012;28;20064;-60
2022/01/30 00:36:23;;;;;;;0.65;0.65;;;;;;;8.36;63.37;96035.31;5010688;28;20610;-60
2022/01/30 00:38:48;;;;;;;0.50;0.50;;;;;;;8.04;63.99;96007.28;4992896;28;20154;-60
2022/01/30 00:41:14;;;;;;;2.00;0.73;;;;;;;8.71;62.32;96047.75;4993073;28;20041;-60
2022/01/30 00:43:39;;;;;;;0.68;0.40;;;;;;;7.89;63.64;95978.13;5010833;28;20378;-60
2022/01/30 00:46:04;;;;;;;1.13;0.60;;;;;;;8.92;61.94;96022.75;5018535;28;20113;-60
2022/01/30 00:48:30;;;;;;;1.05;0.80;;;;;;;8.79;61.11;96029.41;5019892;28;20060;-60
2022/01/30 00:50:55;;;;;;;0.60;0.60;;;;;;;8.20;61.78;95949.75;5030315;28;20561;-60
2022/01/30 00:53:21;;;;;;;1.27;0.80;;;;;;;8.11;62.54;95968.03;5030393;28;20100;-61
2022/01/30 00:55:46;;;;;;;0.73;0.73;;;;;;;8.82;61.53;95977.69;5030335;28;20470;-60
2022/01/30 00:58:12;;;;;;;1.75;0.32;;;;;;;8.56;62.17;95987.59;5030367;28;20033;-60
2022/01/30 01:00:38;;;;;;;1.05;0.38;;;;;;;8.77;61.93;96007.69;5026722;28;20048;-60
2022/01/30 01:03:04;;;;;;;0.50;0.50;;;;;;;8.70;61.67;96006.34;5018707;28;20522;-60
2022/01/30 01:05:31;;;;;;;0.50;0.40;;;;;;;8.22;61.34;95897.25;5010740;28;20057;-60
2022/01/30 01:08:00;;;;;;;0.50;0.50;;;;;;;8.76;61.14;96005.31;5010595;28;20061;-62
2022/01/30 01:10:40;;;;;;;0.77;0.50;;;;;;;8.71;60.73;95976.94;5010180;28;20053;-62
2022/01/30 01:23:51;;;;;;;0.40;0.40;;;;;;;8.44;61.94;96000.31;5010957;28;20072;-61
2022/01/30 01:26:18;;;;;;;0.47;0.40;;;;;;;9.12;59.67;95997.97;5010568;28;20022;-61
2022/01/30 01:28:44;;;;;;;1.10;0.57;;;;;;;9.03;60.49;96020.84;5010192;28;20398;-60
2022/01/30 01:31:10;;;;;;;0.30;0.30;;;;;;;9.06;59.61;95980.50;4997764;28;20030;-61
2022/01/30 01:36:20;;;;;;;0.40;0.40;;;;;;;8.51;61.87;96016.78;5012480;28;20393;-61
2022/01/30 01:38:46;;;;;;;0.43;0.43;;;;;;;8.79;60.86;96002.09;5013492;28;20026;-60
2022/01/30 01:41:12;;;;;;;0.30;0.30;;;;;;;8.72;60.83;95996.28;4996561;28;20229;-60
2022/01/30 01:43:38;;;;;;;1.85;0.25;;;;;;;8.56;61.76;96017.56;4996281;28;20030;-60
2022/01/30 01:46:12;;;;;;;0.30;0.30;;;;;;;9.07;59.99;95988.19;5018554;28;20029;-61
2022/01/30 01:48:37;;;;;;;0.85;0.50;;;;;;;8.70;60.16;95977.19;5024248;28;20036;-60
2022/01/30 01:51:05;;;;;;;0.30;0.30;;;;;;;8.33;61.75;95975.66;5015732;28;20033;-60
2022/01/30 01:53:31;;;;;;;0.30;0.30;;;;;;;8.52;61.01;95981.22;5033617;28;20438;-61
2022/01/30 01:55:57;;;;;;;0.73;0.40;;;;;;;7.98;63.18;96016.25;5015566;28;20063;-61
2022/01/30 01:58:27;;;;;;;0.40;0.40;;;;;;;8.57;61.74;96003.22;5015341;28;20028;-60
2022/01/30 02:00:52;;;;;;;0.40;0.40;;;;;;;8.52;61.10;95975.94;5032449;28;20044;-60
2022/01/30 02:03:19;;;;;;;0.20;0.20;;;;;;;8.54;61.49;95998.44;5025242;28;20133;-60
2022/01/30 02:05:52;;;;;;;0.50;0.50;;;;;;;8.82;60.28;95956.47;5033270;28;20021;-60
2022/01/30 02:08:37;;;;;;;0.55;0.43;;;;;;;9.48;59.18;95958.75;5033120;28;20017;-60
2022/01/30 02:11:14;;;;;;;0.32;0.30;;;;;;;8.31;61.79;95957.41;5032963;28;20026;-60
2022/01/30 02:24:27;;;;;;;0.93;0.40;;;;;;;8.63;59.81;95958.13;5013468;28;20080;-61
2022/01/30 02:26:53;;;;;;;0.40;0.40;;;;;;;8.00;61.39;95921.44;4995396;28;20056;-60
2022/01/30 02:29:19;;;;;;;1.10;0.77;;;;;;;8.11;61.58;95943.41;5012417;28;20050;-60
2022/01/30 02:31:45;;;;;;;0.30;0.30;;;;;;;8.30;61.11;95952.38;5015736;28;20044;-60
2022/01/30 02:34:10;;;;;;;0.30;0.30;;;;;;;8.38;60.51;95914.72;4995127;28;20474;-60
2022/01/30 02:36:49;;;;;;;0.30;0.30;;;;;;;8.54;61.07;95957.88;5012765;28;20445;-60
2022/01/30 02:39:15;;;;;;;0.47;0.40;;;;;;;8.83;59.64;95948.22;5012401;28;20529;-60
2022/01/30 02:41:41;;;;;;;0.55;0.30;;;;;;;8.29;61.53;95948.94;5012585;28;20022;-61
2022/01/30 02:46:37;;;;;;;0.63;0.30;;;;;;;8.44;60.67;95934.06;5016965;28;20026;-60
2022/01/30 02:49:23;;;;;;;0.30;0.30;;;;;;;8.42;61.39;95963.50;5017377;28;20101;-60
2022/01/30 02:51:55;;;;;;;0.40;0.40;;;;;;;8.50;61.15;95973.56;5012341;28;20061;-60
2022/01/30 02:54:21;;;;;;;0.30;0.30;;;;;;;7.66;62.11;95905.31;5012429;28;20060;-60
2022/01/30 02:56:47;;;;;;;1.20;0.30;;;;;;;8.47;61.13;95962.69;5012494;28;20030;-60
2022/01/30 02:59:13;;;;;;;5.38;0.73;;;;;;;8.60;60.47;95962.13;5012067;28;20025;-60
2022/01/30 03:01:39;;;;;;;0.40;0.40;;;;;;;8.66;59.92;95904.56;5013796;28;20038;-60
2022/01/30 03:04:05;;;;;;;0.40;0.40;;;;;;;8.59;60.52;95929.47;5026672;28;20147;-60
2022/01/30 03:06:31;;;;;;;0.32;0.32;;;;;;;9.08;59.20;95946.50;5032010;28;20017;-62
2022/01/30 03:08:57;;;;;;;0.38;0.38;;;;;;;8.33;61.20;95936.69;5031615;28;20030;-60
2022/01/30 03:11:24;;;;;;;0.47;0.30;;;;;;;8.55;59.96;95917.84;5014124;28;20447;-60
2022/01/30 03:13:49;;;;;;;0.57;0.57;;;;;;;8.19;61.46;95919.81;5031892;28;20044;-60
2022/01/30 03:16:15;;;;;;;0.75;0.40;;;;;;;8.19;61.22;95933.06;5031291;28;20470;-61
2022/01/30 03:18:44;;;;;;;0.30;0.30;;;;;;;7.73;61.83;95853.69;5012084;28;20415;-60
2022/01/30 03:21:09;;;;;;;0.90;0.50;;;;;;;9.18;59.13;95949.09;5011856;28;20080;-60
2022/01/30 03:23:38;;;;;;;0.40;0.40;;;;;;;8.24;60.63;95924.25;4994371;28;20030;-60
2022/01/30 03:26:05;;;;;;;1.20;0.40;;;;;;;8.33;61.30;95959.75;5011897;28;20026;-60
2022/01/30 03:28:32;;;;;;;0.55;0.30;;;;;;;8.25;61.33;95931.97;5011714;28;20092;-60
2022/01/30 03:31:04;;;;;;;0.60;0.57;;;;;;;8.03;62.74;95956.09;5012155;28;20018;-60
2022/01/30 03:33:30;;;;;;;1.40;1.20;;;;;;;8.46;61.97;95938.03;5021405;28;20105;-60
2022/01/30 03:35:55;;;;;;;0.43;0.43;;;;;;;8.01;64.34;95958.25;5031435;28;20112;-60
2022/01/30 03:38:22;;;;;;;0.52;0.40;;;;;;;7.86;64.02;95929.13;5031532;28;20477;-60
2022/01/30 03:40:48;;;;;;;0.93;0.47;;;;;;;7.63;63.40;95898.69;5031465;28;20236;-60
2022/01/30 03:43:14;;;;;;;0.50;0.40;;;;;;;8.29;62.86;95954.22;5030940;28;20042;-60
2022/01/30 03:45:40;;;;;;;0.32;0.30;;;;;;;8.11;62.79;95932.78;5029910;28;20041;-60
2022/01/30 03:48:06;;;;;;;0.73;0.40;;;;;;;7.84;62.60;95923.31;5016236;28;20030;-60
2022/01/30 03:50:31;;;;;;;0.43;0.35;;;;;;;8.42;61.67;95990.00;5011209;28;20033;-61
2022/01/30 03:52:57;;;;;;;0.47;0.47;;;;;;;8.15;61.52;95945.25;5011619;28;20032;-60
2022/01/30 03:55:23;;;;;;;0.95;0.38;;;;;;;8.77;60.01;95983.81;5011352;28;20026;-60
2022/01/30 03:57:49;;;;;;;0.50;0.50;;;;;;;8.73;60.24;95985.41;4993717;28;20026;-60
2022/01/30 04:00:15;;;;;;;0.68;0.47;;;;;;;8.67;60.35;95985.69;5010268;28;20552;-60
2022/01/30 04:02:41;;;;;;;0.40;0.40;;;;;;;8.57;60.43;95982.00;5027265;28;20083;-60
2022/01/30 04:05:06;;;;;;;0.50;0.40;;;;;;;8.58;60.06;95957.06;5011241;28;20022;-60
2022/01/30 04:07:32;;;;;;;0.30;0.30;;;;;;;8.33;61.02;95995.03;4993675;28;20030;-60
2022/01/30 04:09:58;;;;;;;0.65;0.65;;;;;;;8.73;60.34;95988.06;5010925;28;20053;-60
2022/01/30 04:12:25;;;;;;;3.63;0.40;;;;;;;8.18;60.71;95970.41;5011173;28;20109;-60
2022/01/30 04:14:50;;;;;;;0.73;0.63;;;;;;;8.28;60.56;95973.03;5011180;28;20025;-60
2022/01/30 04:17:18;;;;;;;0.65;0.38;;;;;;;8.72;60.17;95989.13;5018097;28;20080;-61
2022/01/30 04:19:44;;;;;;;1.05;0.50;;;;;;;8.63;60.00;95988.09;5022266;28;20036;-60
2022/01/30 04:22:09;;;;;;;1.50;0.50;;;;;;;8.53;60.02;95993.41;5030569;28;20033;-61
2022/01/30 04:24:35;;;;;;;0.30;0.30;;;;;;;7.82;62.21;95996.91;5030733;28;20021;-61
2022/01/30 04:27:00;;;;;;;0.45;0.45;;;;;;;8.25;61.62;95987.63;5030689;28;20370;-61
2022/01/30 04:29:26;;;;;;;0.85;0.60;;;;;;;7.95;62.25;95942.63;5030330;28;20083;-60
2022/01/30 04:31:51;;;;;;;0.25;0.25;;;;;;;7.76;62.16;95956.41;5011870;28;20128;-61
2022/01/30 04:34:18;;;;;;;0.55;0.32;;;;;;;8.26;61.46;95975.16;5014069;28;20050;-61
2022/01/30 04:36:59;;;;;;;0.57;0.50;;;;;;;7.74;62.67;96005.41;5010671;28;20033;-61
2022/01/30 04:55:50;;;;;;;0.80;0.70;;;;;;;7.41;64.80;95993.44;5030281;28;20374;-61
2022/01/30 04:58:04;;;;;;;1.00;0.85;;;;;;;8.12;63.21;96009.38;5030357;28;20075;-61
2022/01/30 05:00:38;;;;;;;1.17;1.00;;;;;;;7.67;64.29;96000.34;5029798;28;20404;-61
2022/01/30 05:08:04;;;;;;;0.98;0.88;;;;;;;7.83;63.22;95998.53;5010673;28;20450;-61
2022/01/30 05:10:30;;;;;;;2.28;0.80;;;;;;;7.75;63.94;96042.22;5011005;28;20057;-61
2022/01/30 05:12:57;;;;;;;1.05;1.00;;;;;;;7.93;63.24;96026.84;5014488;28;20058;-61
2022/01/30 05:15:26;;;;;;;0.93;0.90;;;;;;;7.80;63.10;95957.47;5014280;28;20109;-62
2022/01/30 05:17:52;;;;;;;1.20;1.10;;;;;;;7.30;63.76;95987.34;5026507;28;20072;-61
2022/01/30 05:20:18;;;;;;;1.40;0.90;;;;;;;7.61;63.03;96004.06;5030026;28;20025;-61
2022/01/30 05:22:43;;;;;;;1.65;1.30;;;;;;;8.22;61.86;95982.84;5016078;28;20035;-61
2022/01/30 05:25:09;;;;;;;1.00;1.00;;;;;;;7.70;63.70;96017.59;5033826;28;20087;-60
2022/01/30 05:27:35;;;;;;;1.17;1.05;;;;;;;7.87;62.72;96031.34;5033271;28;20037;-61
2022/01/30 05:30:01;;;;;;;2.45;1.00;;;;;;;7.94;62.67;96029.25;5015962;28;20477;-61
2022/01/30 05:32:26;;;;;;;1.73;1.10;;;;;;;8.03;62.21;96019.69;5023935;28;20066;-61
2022/01/30 05:34:54;;;;;;;0.98;0.85;;;;;;;7.74;64.60;96056.53;5026513;28;20028;-61
2022/01/30 05:37:20;;;;;;;1.27;1.08;;;;;;;7.79;65.15;96045.94;5015996;28;20469;-61
2022/01/30 05:39:45;;;;;;;1.20;1.08;;;;;;;7.63;66.61;96019.72;5015682;28;20052;-60
2022/01/30 05:42:12;;;;;;;1.40;1.30;;;;;;;7.41;68.56;96028.66;5033514;28;20212;-60
2022/01/30 05:45:08;;;;;;;4.97;1.50;;;;;;;7.23;69.13;96052.97;5015664;28;20033;-61
2022/01/30 05:47:33;;;;;;;7.72;1.73;;;;;;;6.80;72.43;96033.72;5030620;28;20033;-61
2022/01/30 05:49:59;;;;;;;2.80;2.60;;;;;;;6.86;72.25;96032.72;5013446;28;20553;-61
2022/01/30 05:52:25;;;;;;;2.20;2.00;;;;;;;6.92;72.39;96050.19;5013604;28;20096;-60
2022/01/30 05:54:50;;;;;;;2.40;2.20;;;;;;;6.64;73.01;96037.38;5013602;28;20107;-61
2022/01/30 05:57:16;;;;;;;3.13;2.83;;;;;;;6.95;72.41;96072.69;5013482;28;20026;-60
2022/01/30 05:59:41;;;;;;;2.25;2.05;;;;;;;6.75;73.67;96045.09;5013304;28;20030;-61
2022/01/30 06:02:07;;;;;;;4.38;3.38;;;;;;;6.64;73.80;96040.81;5015859;28;20025;-61
2022/01/30 06:04:32;;;;;;;3.72;3.22;;;;;;;7.09;72.09;96038.63;5003993;28;20026;-60
2022/01/30 06:07:00;;;;;;;3.53;2.63;;;;;;;6.22;72.71;95999.34;4995765;28;20057;-60
2022/01/30 06:09:25;;;;;;;2.17;1.67;;;;;;;6.47;73.46;96053.41;5013242;28;20068;-60
2022/01/30 06:11:51;;;;;;;3.38;3.08;;;;;;;6.57;72.97;96032.31;5013351;28;20093;-60
2022/01/30 06:14:17;;;;;;;4.63;4.18;;;;;;;6.86;72.97;96064.47;5013263;28;20014;-60
2022/01/30 06:16:43;;;;;;;2.88;2.58;;;;;;;6.45;73.58;96044.94;5018482;28;20037;-60
2022/01/30 06:19:09;;;;;;;3.53;2.63;;;;;;;6.51;73.42;96049.19;5017512;28;20422;-60
2022/01/30 06:21:34;;;;;;;2.40;2.20;;;;;;;6.29;74.00;96067.00;5012767;28;20486;-60
2022/01/30 06:24:00;;;;;;;3.53;3.15;;;;;;;6.46;73.86;96055.25;5012674;28;20026;-60
2022/01/30 06:26:26;;;;;;;5.82;3.75;;;;;;;6.90;71.83;96064.72;5013174;28;20022;-60
2022/01/30 06:28:51;;;;;;;3.75;3.45;;;;;;;6.68;72.57;96054.31;5012633;28;20036;-60
2022/01/30 06:31:17;;;;;;;3.58;3.28;;;;;;;6.94;71.89;96057.88;5014091;28;20093;-60
2022/01/30 06:33:43;;;;;;;4.00;3.25;;;;;;;6.55;72.51;96020.38;5024470;28;20020;-60
2022/01/30 06:36:08;;;;;;;6.85;3.00;;;;;;;6.15;73.62;96045.53;5014873;28;20022;-60
2022/01/30 06:38:33;;;;;;;5.53;5.03;;;;;;;6.96;73.10;96061.03;5032265;28;20389;-60
2022/01/30 06:40:59;;;;;;;2.72;2.33;;;;;;;6.24;72.88;96068.59;5014696;28;20124;-60
2022/01/30 06:43:25;;;;;;;5.05;4.03;;;;;;;7.10;71.61;96070.09;5032437;28;20029;-60
2022/01/30 06:45:50;;;;;;;3.65;2.50;;;;;;;7.00;71.74;96083.28;5032613;28;20523;-60
2022/01/30 06:48:17;;;;;;;2.97;2.78;;;;;;;7.01;72.66;96087.53;5015807;28;20458;-60
2022/01/30 06:50:43;;;;;;;2.78;2.58;;;;;;;6.87;72.20;96067.91;5012135;28;20030;-60
2022/01/30 06:53:08;;;;;;;3.20;2.90;;;;;;;6.77;72.73;96105.66;5012557;28;20071;-60
2022/01/30 06:55:33;;;;;;;3.00;2.78;;;;;;;6.58;72.65;96092.06;4994804;28;20030;-60
2022/01/30 06:57:59;;;;;;;1.98;1.77;;;;;;;6.34;72.10;96045.91;4994825;28;20390;-60
2022/01/30 07:00:24;;;;;;;2.75;2.45;;;;;;;7.00;71.48;96094.66;5011850;28;20718;-60
2022/01/30 07:02:50;;;;;;;2.85;2.55;;;;;;;7.12;70.62;96102.41;5016833;28;20026;-60
2022/01/30 07:05:15;;;;;;;1.65;1.45;;;;;;;6.38;72.59;96078.69;5016097;28;20474;-60
2022/01/30 07:07:41;;;;;;;3.33;1.80;;;;;;;6.90;71.56;96112.31;5012275;28;20033;-60
2022/01/30 07:10:07;;;;;;;2.00;1.75;;;;;;;6.94;71.11;96131.94;5011952;28;20131;-60
2022/01/30 07:12:33;;;;;;;4.45;2.38;;;;;;;7.13;70.45;96125.16;5012016;28;20028;-61
2022/01/30 07:14:58;;;;;;;3.25;1.80;;;;;;;6.71;70.63;96062.53;5012256;28;20033;-60
2022/01/30 07:17:23;;;;;;;1.73;1.63;;;;;;;7.67;68.63;96114.22;5019784;28;20025;-60
2022/01/30 07:19:49;;;;;;;2.83;1.73;;;;;;;7.15;69.55;96101.09;5011938;28;20029;-60
2022/01/30 07:22:14;;;;;;;2.28;1.35;;;;;;;7.61;68.24;96125.06;4994410;28;20013;-60
2022/01/30 07:24:40;;;;;;;1.30;1.20;;;;;;;7.45;69.11;96126.88;5011955;28;20032;-60
2022/01/30 07:27:05;;;;;;;1.85;1.50;;;;;;;7.77;67.59;96116.91;5011947;28;20389;-60
2022/01/30 07:29:30;;;;;;;2.05;1.83;;;;;;;6.88;68.52;95995.44;5011619;28;20034;-60
2022/01/30 07:31:56;;;;;;;1.95;1.85;;;;;;;7.50;68.84;96124.25;5015833;28;20084;-60
2022/01/30 07:34:22;;;;;;;1.10;1.00;;;;;;;7.32;67.95;96130.81;5014862;28;20551;-60
2022/01/30 07:36:48;;;;;;;2.20;1.70;;;;;;;7.52;68.40;96138.00;5031370;28;20029;-60
2022/01/30 07:39:16;;;;;;;1.58;1.48;;;;;;;7.32;68.09;96120.22;5031193;28;20080;-61
2022/01/30 07:41:45;;;;;;;1.80;1.70;;;;;;;8.08;66.23;96146.09;5031064;28;20025;-61
2022/01/30 07:44:10;;;;;;;1.83;1.52;;;;;;;7.54;67.37;96081.09;5031533;28;20079;-61
2022/01/30 07:46:36;;;;;;;0.98;0.90;;;;;;;7.47;67.51;96138.00;5013393;28;20026;-61
2022/01/30 07:49:02;;;;;;;2.22;1.35;;;;;;;7.51;66.87;96139.06;5017086;28;20049;-60
2022/01/30 07:51:27;;;;;;;7.78;0.90;;;;;;;7.29;66.49;96142.69;5011240;28;20021;-60
2022/01/30 07:53:53;;;;;;;2.58;1.05;;;;;;;7.44;66.89;96141.97;5013582;28;20018;-60
2022/01/30 07:56:18;;;;;;;3.38;1.40;;;;;;;7.53;67.10;96144.91;5031103;28;20030;-60
2022/01/30 07:58:43;;;;;;;1.42;0.63;;;;;;;6.51;67.02;96012.19;5031009;28;20049;-60
2022/01/30 08:01:09;;;;;;;1.08;0.90;;;;;;;7.79;65.24;96117.44;5031048;28;20033;-59
2022/01/30 08:03:34;;;;;;;7.13;1.23;;;;;;;6.76;66.60;96118.09;5028419;28;20525;-60
2022/01/30 08:06:00;;;;;;;5.32;1.67;;;;;;;6.74;67.31;96106.94;5011241;28;20030;-60
2022/01/30 08:08:25;;;;;;;7.50;1.92;;;;;;;5.49;68.03;95992.94;4993219;28;20068;-60
2022/01/30 08:10:50;;;;;;;2.22;1.00;;;;;;;6.51;67.82;96141.72;5010992;28;20026;-60
2022/01/30 08:13:16;;;;;;;5.97;1.50;;;;;;;6.12;69.69;96163.03;5011160;28;20112;-61
2022/01/30 08:15:46;;;;;;;7.53;1.70;;;;;;;5.91;70.97;96187.63;5010966;28;20049;-61
2022/01/30 08:18:11;;;;;;;7.43;1.77;;;;;;;5.84;72.15;96166.72;5016503;28;20022;-61
2022/01/30 08:20:37;;;;;;;6.32;1.70;;;;;;;5.77;72.24;96139.69;4992800;28;20029;-60
2022/01/30 08:23:11;;;;;;;10.05;2.53;;;;;;;6.74;69.78;96161.69;4993395;28;20026;-60
2022/01/30 08:25:37;;;;;;;4.43;1.15;;;;;;;6.20;72.49;96159.97;5011536;28;20083;-58
2022/01/30 08:28:03;;;;;;;2.65;1.77;;;;;;;6.91;70.73;96190.63;5011658;28;20470;-59
2022/01/30 08:30:28;;;;;;;6.95;1.80;;;;;;;6.82;70.94;96163.88;5010248;28;20030;-60
2022/01/30 08:32:54;;;;;;;2.70;1.40;;;;;;;7.08;70.66;96158.72;5015713;28;20378;-60
2022/01/30 08:35:20;;;;;;;1.92;1.45;;;;;;;7.07;70.89;96175.66;5010554;28;20105;-60
2022/01/30 08:37:46;;;;;;;3.03;1.13;;;;;;;7.07;70.72;96175.66;5010783;28;20026;-62
2022/01/30 08:40:15;;;;;;;3.50;1.10;;;;;;;7.19;69.25;96186.84;5010142;28;20113;-61
2022/01/30 08:42:41;;;;;;;1.40;0.80;;;;;;;7.02;69.18;96168.50;5010748;28;20029;-62
2022/01/30 08:45:10;;;;;;;1.73;0.73;;;;;;;7.40;69.09;96175.28;5010865;28;20021;-62
2022/01/30 08:47:37;;;;;;;2.03;1.17;;;;;;;7.77;67.09;96175.16;5019081;28;20473;-63
2022/01/30 08:50:04;;;;;;;3.17;0.80;;;;;;;7.65;67.07;96169.31;5014329;28;20030;-65
2022/01/30 08:52:30;;;;;;;3.05;1.02;;;;;;;8.68;67.12;96202.91;5014360;28;20022;-60
2022/01/30 08:54:55;;;;;;;2.03;0.70;;;;;;;8.64;64.99;96206.34;5014900;28;20375;-60
2022/01/30 08:57:21;;;;;;;1.92;1.00;;;;;;;8.40;64.92;96179.56;4996773;28;20030;-60
2022/01/30 08:59:46;;;;;;;2.22;0.95;;;;;;;8.88;62.96;96199.47;5014320;28;20021;-60
2022/01/30 09:02:13;;;;;;;1.52;0.80;;;;;;;8.39;62.90;96192.00;5017411;28;20044;-60
2022/01/30 09:04:38;;;;;;;2.72;1.15;;;;;;;8.81;61.95;96177.72;5023016;28;20025;-60
2022/01/30 09:07:04;;;;;;;3.45;1.10;;;;;;;8.81;62.08;96213.00;5014285;28;20036;-60
2022/01/30 09:09:30;;;;;;;7.38;1.15;;;;;;;8.80;61.53;96215.91;5014167;28;20030;-60
2022/01/30 09:11:58;;;;;;;4.93;1.20;;;;;;;9.40;60.29;96190.31;5014048;28;20069;-60
2022/01/30 09:14:26;;;;;;;2.63;1.17;;;;;;;9.03;59.92;96190.69;5014257;28;20030;-62
2022/01/30 09:16:52;;;;;;;2.25;0.82;;;;;;;8.19;61.81;96211.31;5013853;28;20038;-60
2022/01/30 09:19:18;;;;;;;2.67;0.90;;;;;;;8.19;62.21;96245.78;5017197;28;20026;-63
2022/01/30 09:21:44;;;;;;;1.23;0.82;;;;;;;7.86;61.46;96198.50;5013921;28;20370;-60
2022/01/30 09:24:09;;;;;;;3.70;1.17;;;;;;;8.26;61.28;96193.31;5014114;28;20033;-62
2022/01/30 09:26:35;;;;;;;3.72;1.38;;;;;;;8.39;60.02;96238.94;5013975;28;20060;-62
2022/01/30 09:29:00;;;;;;;2.83;1.02;;;;;;;8.18;60.92;96225.63;4996128;28;20050;-62
2022/01/30 09:31:25;;;;;;;4.90;1.20;;;;;;;7.54;59.26;96268.28;5013967;28;20068;-61
2022/01/30 09:33:52;;;;;;;2.60;1.10;;;;;;;6.80;60.63;96242.63;5016591;28;20021;-62
2022/01/30 09:36:18;;;;;;;8.65;1.17;;;;;;;7.26;61.37;96262.28;5013429;28;20161;-63
2022/01/30 09:38:44;;;;;;;4.45;1.70;;;;;;;7.25;60.81;96221.00;5013560;28;20521;-63
2022/01/30 09:41:09;;;;;;;5.28;1.60;;;;;;;7.07;60.67;96216.16;5013862;28;20106;-61
2022/01/30 09:43:35;;;;;;;2.55;0.98;;;;;;;6.65;60.73;96203.66;5013730;28;20026;-62
2022/01/30 09:46:02;;;;;;;7.47;1.50;;;;;;;6.66;61.31;96215.06;5013511;28;20440;-60
2022/01/30 09:48:28;;;;;;;5.95;1.55;;;;;;;6.99;59.01;96201.53;5014949;28;20118;-59
2022/01/30 09:50:57;;;;;;;4.35;1.17;;;;;;;7.50;59.00;96257.41;5007349;28;20388;-68
2022/01/30 09:53:23;;;;;;;1.98;1.05;;;;;;;7.16;57.20;96193.41;5032105;28;20033;-67
2022/01/30 09:55:48;;;;;;;7.50;1.48;;;;;;;6.92;57.84;96222.13;5014197;28;20021;-66
2022/01/30 09:58:14;;;;;;;8.48;1.92;;;;;;;7.50;56.30;96217.69;5030511;28;20049;-69
2022/01/30 10:00:39;;;;;;;6.15;1.75;;;;;;;7.50;54.17;96198.38;5013736;28;20017;-67
2022/01/30 10:03:05;;;;;;;6.53;1.75;;;;;;;7.71;53.81;96225.72;5061009;22;20512;-79
2022/01/30 10:05:34;;;;;;;5.25;0.85;;;;;;;7.31;53.92;96258.88;5045735;28;20128;-74
2022/01/30 10:08:00;;;;;;;6.93;1.50;;;;;;;7.27;54.32;96232.16;5057304;28;20021;-69
2022/01/30 10:10:28;;;;;;;6.40;1.63;;;;;;;7.44;54.05;96233.81;5049518;28;20445;-66
2022/01/30 10:13:08;;;;;;;5.13;1.58;;;;;;;7.67;54.98;96204.25;5051723;28;20036;-68
2022/01/30 10:15:49;;;;;;;3.40;1.40;;;;;;;7.54;55.36;96233.88;5034117;28;20388;-67
2022/01/30 10:18:15;;;;;;;5.38;1.58;;;;;;;7.71;55.11;96200.03;5043766;28;20041;-73
2022/01/30 10:20:40;;;;;;;4.85;1.40;;;;;;;7.77;56.14;96192.91;5014399;28;20029;-71
2022/01/30 10:23:09;;;;;;;5.65;2.28;;;;;;;8.56;54.78;96189.13;5032260;28;20025;-72
2022/01/30 10:25:48;;;;;;;2.92;1.48;;;;;;;7.87;56.83;96179.69;5032520;28;20033;-72
2022/01/30 10:28:20;;;;;;;8.13;1.52;;;;;;;7.70;58.04;96174.63;5014776;28;20494;-71
2022/01/30 10:30:47;;;;;;;6.82;1.30;;;;;;;7.66;58.15;96201.88;5014467;28;20034;-74
2022/01/30 10:33:15;;;;;;;4.97;2.03;;;;;;;7.57;58.89;96204.22;5014987;28;20029;-74
2022/01/30 10:35:58;;;;;;;6.65;2.30;;;;;;;8.00;57.51;96196.97;5031754;28;20029;-70
2022/01/30 10:38:32;;;;;;;9.00;2.10;;;;;;;8.11;58.40;96185.31;5032535;28;20022;-70
2022/01/30 10:41:17;;;;;;;8.07;1.83;;;;;;;7.81;59.23;96183.41;5031242;28;20022;-71
2022/01/30 10:44:02;;;;;;;5.60;1.73;;;;;;;8.58;57.10;96200.25;5031579;28;20532;-69
2022/01/30 10:46:37;;;;;;;5.60;2.25;;;;;;;8.51;57.76;96191.78;5013297;28;20034;-73
2022/01/30 10:49:25;;;;;;;3.63;1.85;;;;;;;8.88;56.91;96193.34;5036827;28;20021;-73
2022/01/30 10:51:58;;;;;;;3.22;2.22;;;;;;;8.56;57.71;96189.91;5031044;28;20036;-69
2022/01/30 10:54:29;;;;;;;8.68;2.47;;;;;;;8.57;57.44;96191.50;5031117;28;20440;-73
2022/01/30 10:57:09;;;;;;;6.38;1.98;;;;;;;8.55;57.25;96171.63;5030898;28;20029;-80
2022/01/30 10:59:43;;;;;;;4.00;1.95;;;;;;;9.15;56.05;96191.19;5028149;28;20083;-72
2022/01/30 11:02:12;;;;;;;5.28;1.90;;;;;;;9.56;54.90;96191.06;5013152;28;20532;-72
2022/01/30 11:04:38;;;;;;;4.40;1.23;;;;;;;8.66;55.99;96191.00;5038514;28;20109;-71
2022/01/30 11:07:04;;;;;;;7.00;2.20;;;;;;;9.15;54.92;96174.47;5030576;28;20543;-74
2022/01/30 11:12:05;;;;;;;3.00;1.20;;;;;;;8.92;55.59;96194.41;5030998;28;20457;-73
2022/01/30 11:15:18;;;;;;;5.20;1.80;;;;;;;9.63;53.33;96189.72;5031042;28;20048;-74
2022/01/30 11:17:25;;;;;;;6.07;1.50;;;;;;;9.48;53.86;96184.47;5026763;28;20041;-73
2022/01/30 11:19:53;;;;;;;3.75;1.23;;;;;;;9.28;53.43;96200.47;5038157;28;20095;-75
2022/01/30 11:22:22;;;;;;;5.88;2.10;;;;;;;10.13;51.42;96193.22;5012778;28;20053;-75
2022/01/30 11:24:59;;;;;;;5.03;1.60;;;;;;;9.26;54.06;96199.91;5031021;28;20514;-72
2022/01/30 11:27:24;;;;;;;5.40;1.65;;;;;;;9.42;57.39;96200.66;5030960;28;20520;-72
2022/01/30 11:29:51;;;;;;;4.25;1.80;;;;;;;9.62;54.29;96168.72;5030564;28;20025;-73
2022/01/30 11:32:19;;;;;;;2.67;1.20;;;;;;;9.51;52.62;96193.75;5030599;28;20416;-72
2022/01/30 11:34:44;;;;;;;5.65;1.42;;;;;;;9.15;51.27;96143.41;5038332;28;20025;-79
2022/01/30 11:37:14;;;;;;;2.15;1.00;;;;;;;8.61;53.10;96202.38;5014024;28;20485;-76
2022/01/30 11:39:46;;;;;;;3.40;1.30;;;;;;;8.46;50.48;96200.53;5032135;28;20106;-76
2022/01/30 11:42:14;;;;;;;4.22;1.40;;;;;;;8.33;51.16;96198.34;5032343;28;20450;-77
2022/01/30 11:44:45;;;;;;;4.45;1.40;;;;;;;9.48;48.85;96191.66;5032165;28;20031;-78
2022/01/30 11:47:10;;;;;;;1.45;1.33;;;;;;;8.42;51.09;96193.34;5032921;28;20026;-78
2022/01/30 11:49:43;;;;;;;6.10;0.95;;;;;;;8.50;51.22;96179.59;5038267;28;20035;-78
2022/01/30 11:52:10;;;;;;;3.58;1.17;;;;;;;8.76;50.72;96202.38;5032521;28;20026;-78
2022/01/30 11:54:45;;;;;;;2.45;1.20;;;;;;;8.49;51.24;96168.16;5013876;28;20037;-78
2022/01/30 11:57:22;;;;;;;3.67;1.08;;;;;;;8.81;49.33;96165.25;5032505;28;20029;-78
2022/01/30 11:59:50;;;;;;;4.53;1.20;;;;;;;8.76;49.28;96170.56;5029478;28;20047;-73
2022/01/30 12:02:33;;;;;;;4.70;1.23;;;;;;;8.77;48.65;96166.84;5031089;28;20053;-73
2022/01/30 12:05:01;;;;;;;5.10;1.30;;;;;;;8.96;48.36;96172.41;5036956;28;20026;-74
2022/01/30 12:07:38;;;;;;;6.72;1.25;;;;;;;8.70;46.58;96181.41;5031254;28;20035;-72
2022/01/30 12:10:16;;;;;;;6.10;1.08;;;;;;;8.48;47.21;96174.53;5031035;28;20083;-73
2022/01/30 12:12:55;;;;;;;4.38;1.30;;;;;;;9.22;45.93;96162.50;5031078;28;20096;-76
2022/01/30 12:15:43;;;;;;;5.07;1.73;;;;;;;9.08;47.10;96156.19;5031309;28;20029;-72
2022/01/30 12:18:15;;;;;;;4.82;1.35;;;;;;;9.25;46.24;96159.31;5034386;28;20025;-72
2022/01/30 12:21:04;;;;;;;;;;;;;;;9.46;46.58;96165.34;5030649;28;20014;-72
2022/01/30 12:23:36;;;;;;;6.35;1.38;;;;;;;9.43;47.08;96159.78;5031488;28;19938;-73
2022/01/30 12:26:09;;;;;;;2.28;0.98;;;;;;;8.95;48.25;96162.03;5031065;28;20564;-73
2022/01/30 12:28:54;;;;;;;3.67;1.50;;;;;;;9.22;47.67;96170.47;5038488;28;20025;-72
2022/01/30 12:31:34;;;;;;;7.63;2.10;;;;;;;9.78;46.24;96172.94;5050409;28;20047;-73
2022/01/30 12:34:08;;;;;;;6.05;2.05;;;;;;;10.28;44.90;96164.94;5044351;28;20116;-72
2022/01/30 12:36:37;;;;;;;7.60;1.52;;;;;;;9.51;46.49;96164.53;5031326;28;20040;-72
2022/01/30 12:39:23;;;;;;;4.95;1.40;;;;;;;9.46;46.81;96162.69;5050186;28;20021;-74